Flight Briefing

Flight
SQS14A
Departure Arrival
Penggung (WICD)
Click to view NOTAMS
Halim Perdanakusuma International (WIHH)
Click to view NOTAMS
Departure Time Arrival Time
09:00 09.30
Aircraft Distance
C208B 102.784
Departure METAR Arrival METAR
WIHH 180900Z 06015KT 6000 FEW020 33/22 Q1007 NOSIG
Route



Notes



Additional Data
View recent IFR Routes data



Data Courtesy of FlightAware